Consulta les dades en temps real de l'estació municipal de Susqueda - Veïnat del Coll
| Hora UTC | 07:50 |
|---|---|
| Temperatura | 22.1 ºC |
| Humitat | 55.6 % |
| Pressió | 1021.7 hPa |
| Pluja | 0.0 mm |
| Velocitat vent | 10.3 km/h |
| Direcció vent | SE |
| Radiació solar | 437.8 W/m² |
| Temperatura (ºC) | Humitat (%) | Pressió (hPa) | Velocitat vent (km/h) | Precipitació (mm) | Radiació solar (W/m²) | |||||||||||||
|---|---|---|---|---|---|---|---|---|---|---|---|---|---|---|---|---|---|---|
| Hora UTC | Aire | Humitat | Pressió | Vel. | Dir. | Vel. Max | Dir. | Intent. màx 5 min. | Rad. Sol. | |||||||||
| 00:05 | 20.7 | 55.2 | 1021.0 | 0.3 | NW | 0.3 | NE | 0.0 | 0.1 | |||||||||
| 00:10 | 20.7 | 55.5 | 1021.0 | 0.7 | NE | 7.4 | ENE | 0.0 | 0.1 | |||||||||
| 00:15 | 20.8 | 55.2 | 1021.0 | 0.5 | ENE | 4.2 | ENE | 0.0 | 0.1 | |||||||||
| 00:20 | 20.9 | 55.4 | 1021.0 | 2.5 | ENE | 6.0 | ENE | 0.0 | 0.1 | |||||||||
| 00:25 | 20.8 | 55.3 | 1021.0 | 2.9 | E | 5.3 | ESE | 0.0 | 0.1 | |||||||||
| 00:30 | 20.8 | 55.3 | 1021.0 | 3.2 | E | 9.5 | ENE | 0.0 | 0.1 | |||||||||
| 00:35 | 20.6 | 55.9 | 1021.0 | 2.9 | ESE | 4.2 | SE | 0.0 | 0.1 | |||||||||
| 00:40 | 20.4 | 56.4 | 1021.0 | 3.1 | ESE | 5.3 | E | 0.0 | 0.1 | |||||||||
| 00:45 | 20.3 | 57.2 | 1020.9 | 3.4 | ESE | 6.0 | ESE | 0.0 | 0.1 | |||||||||
| 00:50 | 20.2 | 57.5 | 1020.9 | 3.9 | ESE | 8.1 | E | 0.0 | 0.1 | |||||||||
| 00:55 | 20.1 | 57.5 | 1020.8 | 4.1 | ESE | 7.8 | E | 0.0 | 0.1 | |||||||||
| 01:00 | 20.0 | 57.4 | 1020.8 | 5.4 | ESE | 10.6 | SE | 0.0 | 0.1 | |||||||||
| 01:05 | 20.1 | 56.3 | 1020.8 | 9.1 | SE | 13.8 | SE | 0.0 | 0.1 | |||||||||
| 01:10 | 20.3 | 55.6 | 1020.8 | 8.8 | SE | 12.4 | ESE | 0.0 | 0.1 | |||||||||
| 01:15 | 20.2 | 55.5 | 1020.8 | 8.7 | SE | 11.6 | SE | 0.0 | 0.1 | |||||||||
| 01:20 | 20.2 | 56.1 | 1020.8 | 8.8 | SE | 13.1 | SE | 0.0 | 0.1 | |||||||||
| 01:25 | 20.2 | 56.0 | 1020.8 | 10.6 | SE | 15.2 | SE | 0.0 | 0.1 | |||||||||
| 01:30 | 20.2 | 55.7 | 1020.8 | 11.7 | SE | 15.5 | SE | 0.0 | 0.1 | |||||||||
| 01:35 | 20.2 | 55.8 | 1020.8 | 12.8 | SE | 16.9 | SE | 0.0 | 0.1 | |||||||||
| 01:40 | 20.2 | 56.3 | 1020.8 | 12.2 | SE | 15.9 | SE | 0.0 | 0.1 | |||||||||
| 01:45 | 20.4 | 56.6 | 1020.8 | 10.9 | SE | 15.5 | ESE | 0.0 | 0.1 | |||||||||
| 01:50 | 20.4 | 57.1 | 1020.8 | 11.7 | SE | 20.1 | SSE | 0.0 | 0.1 | |||||||||
| 01:55 | 20.4 | 56.5 | 1020.8 | 9.7 | SE | 18.0 | SE | 0.0 | 0.1 | |||||||||
| 02:00 | 20.2 | 56.7 | 1020.8 | 7.8 | SSE | 15.2 | SE | 0.0 | 0.1 | |||||||||
| 02:05 | 19.9 | 56.7 | 1020.8 | 8.9 | SSE | 17.3 | SSE | 0.0 | 0.1 | |||||||||
| 02:10 | 19.7 | 57.8 | 1020.8 | 8.0 | SSE | 17.3 | SE | 0.0 | 0.1 | |||||||||
| 02:15 | 19.7 | 59.2 | 1020.8 | 8.3 | SSE | 16.2 | SSE | 0.0 | 0.1 | |||||||||
| 02:20 | 19.7 | 60.2 | 1020.8 | 7.6 | SSE | 16.6 | SE | 0.0 | 0.1 | |||||||||
| 02:25 | 19.7 | 60.4 | 1020.8 | 9.1 | SSE | 17.3 | SE | 0.0 | 0.1 | |||||||||
| 02:30 | 19.7 | 60.7 | 1020.8 | 9.2 | SSE | 19.1 | SE | 0.0 | 0.1 | |||||||||
| 02:35 | 19.6 | 61.4 | 1020.8 | 9.4 | SSE | 19.4 | SE | 0.0 | 0.1 | |||||||||
| 02:40 | 19.6 | 62.0 | 1020.8 | 10.2 | SE | 17.3 | SSE | 0.0 | 0.1 | |||||||||
| 02:45 | 19.7 | 61.8 | 1020.8 | 10.6 | SE | 18.0 | SE | 0.0 | 0.1 | |||||||||
| 02:50 | 19.8 | 61.2 | 1020.8 | 12.5 | SE | 21.5 | SE | 0.0 | 0.1 | |||||||||
| 02:55 | 19.7 | 61.5 | 1020.8 | 13.0 | SE | 19.8 | SE | 0.0 | 0.1 | |||||||||
| 03:00 | 19.5 | 62.0 | 1020.8 | 14.4 | SE | 20.8 | SSE | 0.0 | 0.1 | |||||||||
| 03:05 | 19.4 | 62.5 | 1020.8 | 12.6 | SE | 19.8 | SE | 0.0 | 0.1 | |||||||||
| 03:10 | 19.3 | 62.9 | 1020.8 | 14.7 | SE | 20.5 | ESE | 0.0 | 0.1 | |||||||||
| 03:15 | 19.3 | 63.4 | 1020.8 | 13.4 | SE | 20.1 | ESE | 0.0 | 0.1 | |||||||||
| 03:20 | 19.2 | 63.8 | 1020.8 | 13.9 | SE | 20.5 | SSE | 0.0 | 0.1 | |||||||||
| 03:25 | 19.2 | 64.1 | 1020.8 | 13.0 | SE | 17.6 | SE | 0.0 | 0.1 | |||||||||
| 03:30 | 19.0 | 65.3 | 1020.8 | 12.3 | SE | 17.3 | SE | 0.0 | 0.1 | |||||||||
| 03:35 | 19.0 | 65.3 | 1020.7 | 11.6 | SE | 16.2 | SE | 0.0 | 0.1 | |||||||||
| 03:40 | 19.0 | 65.1 | 1020.7 | 10.9 | SE | 17.3 | SSE | 0.0 | 0.1 | |||||||||
| 03:45 | 19.0 | 65.3 | 1020.8 | 13.3 | SE | 19.8 | SE | 0.0 | 0.1 | |||||||||
| 03:50 | 18.9 | 65.8 | 1020.8 | 12.9 | SE | 22.2 | SE | 0.0 | 0.1 | |||||||||
| 03:55 | 18.9 | 66.1 | 1020.8 | 11.8 | SE | 20.8 | SSE | 0.0 | 0.1 | |||||||||
| 04:00 | 18.8 | 65.8 | 1020.8 | 13.2 | SE | 19.8 | SE | 0.0 | 0.1 | |||||||||
| 04:05 | 18.8 | 66.3 | 1020.8 | 15.2 | SE | 20.5 | ESE | 0.0 | 0.1 | |||||||||
| 04:10 | 18.9 | 66.0 | 1020.8 | 11.0 | SE | 17.3 | SE | 0.0 | 0.1 | |||||||||
| 04:15 | 18.8 | 66.3 | 1020.8 | 9.1 | SSE | 16.2 | SE | 0.0 | 0.1 | |||||||||
| 04:20 | 18.7 | 66.6 | 1020.8 | 8.7 | SE | 15.5 | SE | 0.0 | 0.1 | |||||||||
| 04:25 | 18.8 | 66.2 | 1020.7 | 9.1 | SE | 15.5 | SE | 0.0 | 0.1 | |||||||||
| 04:30 | 18.8 | 66.2 | 1020.7 | 9.0 | SSE | 14.8 | SE | 0.0 | 0.1 | |||||||||
| 04:35 | 18.7 | 66.4 | 1020.7 | 10.7 | SE | 17.3 | SSE | 0.0 | 0.1 | |||||||||
| 04:40 | 18.7 | 66.4 | 1020.7 | 10.3 | SSE | 18.7 | SE | 0.0 | 0.1 | |||||||||
| 04:45 | 18.8 | 65.9 | 1020.7 | 11.5 | SE | 19.4 | SE | 0.0 | 0.1 | |||||||||
| 04:50 | 18.8 | 65.6 | 1020.7 | 11.8 | SE | 19.4 | SE | 0.0 | 0.1 | |||||||||
| 04:55 | 18.7 | 65.8 | 1020.7 | 13.5 | SE | 20.1 | SE | 0.0 | 0.4 | |||||||||
| 05:00 | 18.6 | 66.1 | 1020.7 | 11.6 | SE | 18.0 | SE | 0.0 | 0.8 | |||||||||
| 05:05 | 18.7 | 65.7 | 1020.7 | 12.6 | SE | 22.2 | ESE | 0.0 | 1.6 | |||||||||
| 05:10 | 18.7 | 65.7 | 1020.7 | 13.2 | SE | 21.2 | SE | 0.0 | 2.7 | |||||||||
| 05:15 | 18.6 | 66.2 | 1020.7 | 14.0 | SE | 22.2 | SE | 0.0 | 4.6 | |||||||||
| 05:20 | 18.6 | 65.6 | 1020.7 | 14.7 | SE | 22.2 | SE | 0.0 | 12.1 | |||||||||
| 05:25 | 18.7 | 64.9 | 1020.8 | 14.8 | SE | 24.3 | SE | 0.0 | 21.2 | |||||||||
| 05:30 | 18.9 | 64.5 | 1020.8 | 14.4 | SE | 23.3 | SE | 0.0 | 31.9 | |||||||||
| 05:35 | 18.9 | 64.6 | 1020.9 | 12.6 | SE | 20.8 | SSE | 0.0 | 43.2 | |||||||||
| 05:40 | 19.0 | 64.3 | 1020.9 | 14.6 | SE | 26.1 | SE | 0.0 | 55.1 | |||||||||
| 05:45 | 19.1 | 63.4 | 1021.0 | 13.8 | SE | 23.6 | SE | 0.0 | 64.7 | |||||||||
| 05:50 | 19.2 | 62.0 | 1021.0 | 14.5 | SE | 24.3 | SE | 0.0 | 78.7 | |||||||||
| 05:55 | 19.3 | 60.3 | 1021.1 | 16.1 | SE | 25.4 | SE | 0.0 | 92.1 | |||||||||
| 06:00 | 19.4 | 60.1 | 1021.1 | 13.1 | SE | 20.8 | SE | 0.0 | 105.4 | |||||||||
| 06:05 | 19.5 | 60.0 | 1021.1 | 11.3 | ESE | 20.5 | SE | 0.0 | 119.1 | |||||||||
| 06:10 | 19.6 | 59.7 | 1021.1 | 11.7 | SE | 19.8 | ESE | 0.0 | 132.9 | |||||||||
| 06:15 | 19.6 | 58.4 | 1021.1 | 16.5 | SE | 25.8 | SSE | 0.0 | 147.7 | |||||||||
| 06:20 | 19.7 | 56.8 | 1021.1 | 15.5 | SE | 25.4 | SE | 0.0 | 161.9 | |||||||||
| 06:25 | 19.8 | 56.4 | 1021.2 | 15.6 | SE | 23.6 | SE | 0.0 | 176.8 | |||||||||
| 06:30 | 19.9 | 56.3 | 1021.2 | 14.4 | SE | 25.1 | ESE | 0.0 | 192.0 | |||||||||
| 06:35 | 20.0 | 56.0 | 1021.3 | 14.4 | SE | 24.0 | SE | 0.0 | 206.6 | |||||||||
| 06:40 | 20.1 | 55.8 | 1021.3 | 14.3 | SE | 25.1 | SE | 0.0 | 221.5 | |||||||||
| 06:45 | 20.3 | 55.2 | 1021.4 | 14.6 | SE | 25.4 | SE | 0.0 | 236.5 | |||||||||
| 06:50 | 20.3 | 54.7 | 1021.4 | 13.2 | SE | 24.0 | ESE | 0.0 | 252.1 | |||||||||
| 06:55 | 20.5 | 54.8 | 1021.5 | 13.7 | SE | 24.3 | SE | 0.0 | 267.5 | |||||||||
| 07:00 | 20.5 | 54.5 | 1021.5 | 13.2 | SE | 23.6 | SE | 0.0 | 283.0 | |||||||||
| 07:05 | 20.7 | 54.1 | 1021.5 | 14.1 | SE | 27.5 | SE | 0.0 | 297.9 | |||||||||
| 07:10 | 20.6 | 54.7 | 1021.5 | 16.9 | SE | 26.5 | ESE | 0.0 | 313.5 | |||||||||
| 07:15 | 20.8 | 54.5 | 1021.5 | 11.5 | SE | 22.6 | SE | 0.0 | 329.1 | |||||||||
| 07:20 | 21.0 | 54.4 | 1021.5 | 12.8 | SE | 22.6 | SE | 0.0 | 344.7 | |||||||||
| 07:25 | 20.9 | 55.1 | 1021.6 | 13.3 | SE | 23.6 | SE | 0.0 | 360.0 | |||||||||
| 07:30 | 21.3 | 55.4 | 1021.6 | 9.5 | SE | 20.5 | ESE | 0.0 | 375.6 | |||||||||
| 07:35 | 21.5 | 55.6 | 1021.6 | 12.5 | SE | 22.2 | SE | 0.0 | 391.1 | |||||||||
| 07:40 | 21.6 | 55.9 | 1021.6 | 11.4 | ESE | 23.3 | ESE | 0.0 | 406.4 | |||||||||
| 07:45 | 21.8 | 55.9 | 1021.7 | 9.9 | SE | 18.4 | E | 0.0 | 421.8 | |||||||||
| 07:50 | 22.1 | 55.6 | 1021.7 | 10.3 | SE | 20.8 | E | 0.0 | 437.8 | |||||||||
| Màxima | 22.1 | 66.6 | 1021.7 | 16.9 | SE | 27.5 | SE | 0.0 | 437.8 | |||||||||
| Mínima | 18.6 | 54.1 | 1020.7 | |||||||||||||||
| Total | 0.0 | |||||||||||||||||